Havasu City, Arizona
Current Conditions -  °F | °C
As of 5:15 PM on Friday 21 Nov 2014 (Local Time) from KHII Reporting Station
Clear Clear  
Wind Chill: 72°   Ceiling: Unl
Heat Index: 72°   Visibility: 10mi
Dew Point: 19°   Wind: 5mph
Humidity: 14%   Direction: 230°SW
Pressure: 29.9"   Gusts: NA
Location:  34.6022°N, 113.772°W
Report Text: KHII 220015Z AUTO 23004KT 10SM CLR 22/M07 A2990 RMK AO2
Loading
Personal Weather Stations






























Interactive Weather Map New forecast layout! Learn more

10-Day Weather Forecast

Advertisements
Track Severe Weather on mobile